Time;durP1;ratioP1;P1;durP2;ratioP2;P2;SDS_P1;SDS_P2;PMS_P1;PMS_P2;Temp;Humidity;BMP_temperature;BMP_pressure;BME280_temperature;BME280_humidity;BME280_pressure;Samples;Min_cycle;Max_cycle;Signal;HPM_P1;HPM_P2
2022/09/29 00:01:26;;;;;;;14.02;2.20;;;;;;;;;;4933226;29;20040;-87
2022/09/29 00:03:52;;;;;;;14.85;2.80;;;;;;;;;;4932907;29;20071;-87
2022/09/29 00:06:18;;;;;;;20.55;3.10;;;;;;;;;;4932829;29;20106;-90
2022/09/29 00:08:45;;;;;;;11.80;2.42;;;;;;;;;;4932835;29;20056;-89
2022/09/29 00:11:12;;;;;;;9.48;2.70;;;;;;;;;;4932857;29;20043;-89
2022/09/29 00:13:39;;;;;;;12.45;3.47;;;;;;;;;;4932543;29;20031;-86
2022/09/29 00:16:05;;;;;;;14.35;2.78;;;;;;;;;;4932451;29;20032;-86
2022/09/29 00:18:32;;;;;;;13.45;2.72;;;;;;;;;;4931850;29;20095;-92
2022/09/29 00:21:03;;;;;;;14.52;3.20;;;;;;;;;;4931631;29;20100;-93
2022/09/29 00:23:30;;;;;;;22.55;2.88;;;;;;;;;;4932953;29;20089;-88
2022/09/29 00:26:00;;;;;;;15.45;3.33;;;;;;;;;;4932546;29;20108;-90
2022/09/29 00:28:26;;;;;;;14.38;2.30;;;;;;;;;;4932494;29;20035;-87
2022/09/29 00:30:52;;;;;;;10.25;2.67;;;;;;;;;;4932735;29;20035;-89
2022/09/29 00:33:18;;;;;;;12.20;2.63;;;;;;;;;;4932566;29;20408;-86
2022/09/29 00:35:44;;;;;;;10.82;2.58;;;;;;;;;;4932604;29;20031;-86
2022/09/29 00:38:10;;;;;;;11.25;2.63;;;;;;;;;;4932586;29;20036;-89
2022/09/29 00:40:36;;;;;;;13.25;2.60;;;;;;;;;;4933181;29;20040;-90
2022/09/29 00:43:02;;;;;;;12.02;2.33;;;;;;;;;;4932953;29;20392;-88
2022/09/29 00:45:29;;;;;;;15.02;3.33;;;;;;;;;;4932542;29;20528;-89
2022/09/29 00:48:02;;;;;;;10.35;2.70;;;;;;;;;;4932363;29;20039;-89
2022/09/29 00:50:42;;;;;;;13.52;2.53;;;;;;;;;;4930945;29;20046;-86
2022/09/29 00:53:11;;;;;;;9.90;2.20;;;;;;;;;;4931839;29;20024;-90
2022/09/29 00:55:42;;;;;;;10.63;2.70;;;;;;;;;;4933417;29;20034;-89
2022/09/29 00:58:29;;;;;;;7.90;2.58;;;;;;;;;;4931292;29;20114;-87
2022/09/29 01:00:55;;;;;;;10.27;2.70;;;;;;;;;;4912917;29;20035;-86
2022/09/29 01:03:22;;;;;;;16.65;2.47;;;;;;;;;;4913256;29;20028;-91
2022/09/29 01:05:57;;;;;;;12.43;2.83;;;;;;;;;;4911997;29;20036;-89
2022/09/29 01:08:25;;;;;;;18.40;3.13;;;;;;;;;;4912386;29;20051;-88
2022/09/29 01:10:52;;;;;;;16.17;2.85;;;;;;;;;;4913208;29;20021;-89
2022/09/29 01:13:19;;;;;;;16.00;2.80;;;;;;;;;;4911855;29;20091;-90
2022/09/29 01:15:45;;;;;;;9.23;2.47;;;;;;;;;;4913070;29;20103;-90
2022/09/29 01:18:11;;;;;;;11.15;2.97;;;;;;;;;;4913164;29;20039;-88
2022/09/29 01:20:42;;;;;;;10.95;2.42;;;;;;;;;;4914043;29;20040;-89
2022/09/29 01:23:17;;;;;;;14.85;2.38;;;;;;;;;;4914161;29;20024;-88
2022/09/29 01:25:43;;;;;;;17.95;2.60;;;;;;;;;;4911875;29;20028;-87
2022/09/29 01:28:27;;;;;;;9.82;2.50;;;;;;;;;;4930400;29;20058;-86
2022/09/29 01:30:59;;;;;;;16.90;2.25;;;;;;;;;;4921443;29;20036;-91
2022/09/29 01:33:33;;;;;;;17.63;3.03;;;;;;;;;;4913150;29;20028;-89
2022/09/29 01:36:11;;;;;;;13.55;3.00;;;;;;;;;;4911931;29;20103;-89
2022/09/29 01:38:46;;;;;;;12.87;2.40;;;;;;;;;;4912207;29;20108;-90
2022/09/29 01:41:18;;;;;;;11.20;2.30;;;;;;;;;;4913927;29;20048;-89
2022/09/29 01:43:47;;;;;;;11.95;2.33;;;;;;;;;;4913211;29;20020;-88
2022/09/29 01:46:25;;;;;;;8.52;2.33;;;;;;;;;;4913106;29;20408;-87
2022/09/29 01:48:53;;;;;;;5.93;1.92;;;;;;;;;;4913149;29;20111;-88
2022/09/29 01:51:22;;;;;;;9.33;2.23;;;;;;;;;;4912774;29;20043;-91
2022/09/29 01:53:50;;;;;;;9.68;1.92;;;;;;;;;;4911767;29;20032;-91
2022/09/29 01:56:22;;;;;;;9.15;2.10;;;;;;;;;;4911653;29;20083;-90
2022/09/29 01:58:56;;;;;;;12.80;2.58;;;;;;;;;;4919822;29;20027;-90
2022/09/29 02:01:23;;;;;;;10.13;2.08;;;;;;;;;;4933722;29;20044;-90
2022/09/29 02:03:53;;;;;;;9.23;2.40;;;;;;;;;;4933929;29;20515;-89
2022/09/29 02:06:22;;;;;;;15.77;2.22;;;;;;;;;;4935403;29;20468;-89
2022/09/29 02:08:58;;;;;;;9.48;1.90;;;;;;;;;;4935061;29;20102;-89
2022/09/29 02:11:25;;;;;;;6.93;1.83;;;;;;;;;;4935119;29;20063;-88
2022/09/29 02:13:57;;;;;;;7.90;1.88;;;;;;;;;;4934943;29;20030;-88
2022/09/29 02:16:25;;;;;;;9.35;2.03;;;;;;;;;;4935168;29;20054;-91
2022/09/29 02:18:57;;;;;;;10.25;2.00;;;;;;;;;;4934146;29;20444;-90
2022/09/29 02:21:23;;;;;;;9.50;1.80;;;;;;;;;;4933694;29;20040;-90
2022/09/29 02:23:50;;;;;;;11.18;2.05;;;;;;;;;;4934714;29;20416;-87
2022/09/29 02:26:17;;;;;;;7.40;1.88;;;;;;;;;;4934720;29;20102;-86
2022/09/29 02:28:44;;;;;;;10.32;2.00;;;;;;;;;;4935728;29;20031;-87
2022/09/29 02:31:09;;;;;;;6.30;1.73;;;;;;;;;;4935149;29;20032;-87
2022/09/29 02:33:35;;;;;;;9.73;2.00;;;;;;;;;;4933507;29;20039;-88
2022/09/29 02:36:01;;;;;;;9.65;1.90;;;;;;;;;;4934837;29;20035;-89
2022/09/29 02:38:37;;;;;;;12.85;2.40;;;;;;;;;;4934455;29;20023;-90
2022/09/29 02:41:10;;;;;;;15.68;2.65;;;;;;;;;;4934258;29;20035;-87
2022/09/29 02:43:53;;;;;;;15.07;2.08;;;;;;;;;;4934446;29;20539;-90
2022/09/29 02:46:19;;;;;;;8.70;2.00;;;;;;;;;;4932925;29;20057;-89
2022/09/29 02:49:04;;;;;;;10.88;2.25;;;;;;;;;;4934264;29;20392;-88
2022/09/29 02:51:30;;;;;;;11.18;2.90;;;;;;;;;;4933196;29;20122;-91
2022/09/29 02:54:16;;;;;;;8.20;2.03;;;;;;;;;;4934104;29;20456;-86
2022/09/29 02:56:46;;;;;;;11.15;2.30;;;;;;;;;;4934869;29;20403;-88
2022/09/29 02:59:17;;;;;;;10.65;2.67;;;;;;;;;;4922779;29;20048;-88
2022/09/29 03:01:51;;;;;;;14.15;2.60;;;;;;;;;;4914990;29;20118;-88
2022/09/29 03:04:17;;;;;;;8.40;2.20;;;;;;;;;;4920245;29;20047;-86
2022/09/29 03:06:43;;;;;;;10.05;2.63;;;;;;;;;;4934745;29;20035;-88
2022/09/29 03:09:09;;;;;;;15.55;2.95;;;;;;;;;;4932630;29;20023;-89
2022/09/29 03:11:35;;;;;;;12.32;2.47;;;;;;;;;;4933991;29;20535;-91
2022/09/29 03:14:02;;;;;;;14.30;2.50;;;;;;;;;;4934203;29;20020;-88
2022/09/29 03:16:28;;;;;;;11.45;3.20;;;;;;;;;;4932795;29;20111;-90
2022/09/29 03:18:55;;;;;;;12.48;2.42;;;;;;;;;;4931797;29;20051;-88
2022/09/29 03:21:21;;;;;;;10.18;2.72;;;;;;;;;;4933731;29;20039;-86
2022/09/29 03:23:47;;;;;;;12.13;2.97;;;;;;;;;;4934545;29;20063;-86
2022/09/29 03:26:13;;;;;;;13.82;2.95;;;;;;;;;;4932689;29;20083;-91
2022/09/29 03:28:39;;;;;;;7.75;2.55;;;;;;;;;;4934036;29;20090;-91
2022/09/29 03:31:09;;;;;;;12.85;2.60;;;;;;;;;;4934234;29;20507;-90
2022/09/29 03:33:37;;;;;;;19.90;3.15;;;;;;;;;;4933609;29;20075;-89
2022/09/29 03:36:04;;;;;;;12.07;3.20;;;;;;;;;;4933735;29;20035;-90
2022/09/29 03:38:30;;;;;;;11.38;3.10;;;;;;;;;;4933625;29;20488;-90
2022/09/29 03:40:56;;;;;;;13.68;3.05;;;;;;;;;;4932113;29;20595;-91
2022/09/29 03:43:22;;;;;;;13.50;3.00;;;;;;;;;;4933673;29;20392;-86
2022/09/29 03:45:50;;;;;;;17.27;3.17;;;;;;;;;;4933969;29;20103;-90
2022/09/29 03:48:16;;;;;;;21.67;3.55;;;;;;;;;;4933634;29;20036;-86
2022/09/29 03:50:42;;;;;;;19.75;3.20;;;;;;;;;;4933864;29;20032;-88
2022/09/29 03:53:08;;;;;;;12.25;3.58;;;;;;;;;;4933676;29;20030;-90
2022/09/29 03:55:34;;;;;;;10.43;3.13;;;;;;;;;;4934326;29;20051;-90
2022/09/29 03:58:00;;;;;;;9.60;3.30;;;;;;;;;;4947163;29;20087;-88
2022/09/29 04:00:26;;;;;;;12.75;3.30;;;;;;;;;;4941476;29;20114;-85
2022/09/29 04:02:56;;;;;;;13.63;3.35;;;;;;;;;;4932313;29;20118;-90
2022/09/29 04:05:22;;;;;;;10.80;3.60;;;;;;;;;;4926476;29;20031;-83
2022/09/29 04:07:48;;;;;;;16.85;3.70;;;;;;;;;;4922538;29;20100;-87
2022/09/29 04:10:14;;;;;;;9.48;3.60;;;;;;;;;;4930018;29;20047;-91
2022/09/29 04:12:40;;;;;;;8.50;3.40;;;;;;;;;;4932695;29;20468;-91
2022/09/29 04:15:06;;;;;;;13.07;3.53;;;;;;;;;;4931787;29;20030;-90
2022/09/29 04:17:33;;;;;;;11.27;3.42;;;;;;;;;;4929219;29;20028;-91
2022/09/29 04:19:59;;;;;;;12.23;3.72;;;;;;;;;;4913159;29;20064;-87
2022/09/29 04:22:25;;;;;;;12.60;3.45;;;;;;;;;;4912805;29;20040;-92
2022/09/29 04:24:51;;;;;;;14.15;3.70;;;;;;;;;;4922475;29;20019;-89
2022/09/29 04:27:17;;;;;;;17.70;3.83;;;;;;;;;;4932545;29;20036;-93
2022/09/29 04:29:43;;;;;;;9.00;3.22;;;;;;;;;;4917981;29;20084;-91
2022/09/29 04:32:09;;;;;;;14.35;3.72;;;;;;;;;;4932242;29;20043;-89
2022/09/29 04:34:35;;;;;;;9.75;3.17;;;;;;;;;;4932352;29;20032;-90
2022/09/29 04:37:02;;;;;;;15.43;3.60;;;;;;;;;;4932593;29;20032;-92
2022/09/29 04:39:28;;;;;;;15.50;3.72;;;;;;;;;;4924294;29;20028;-91
2022/09/29 04:41:54;;;;;;;10.18;3.50;;;;;;;;;;4927105;29;20039;-89
2022/09/29 04:44:21;;;;;;;14.43;3.45;;;;;;;;;;4932664;29;20024;-92
2022/09/29 04:46:49;;;;;;;10.82;3.10;;;;;;;;;;4932962;29;20027;-91
2022/09/29 04:49:16;;;;;;;10.40;3.88;;;;;;;;;;4933247;29;20024;-94
2022/09/29 04:51:42;;;;;;;12.38;3.80;;;;;;;;;;4932909;29;20031;-90
2022/09/29 04:54:08;;;;;;;18.13;3.70;;;;;;;;;;4933181;29;20034;-92
2022/09/29 04:56:34;;;;;;;8.07;3.30;;;;;;;;;;4931964;29;20040;-92
2022/09/29 04:59:00;;;;;;;11.07;3.35;;;;;;;;;;4932546;29;20024;-93
2022/09/29 05:01:26;;;;;;;18.27;3.67;;;;;;;;;;4923767;29;20043;-89
2022/09/29 05:03:52;;;;;;;8.32;3.15;;;;;;;;;;4914716;29;20033;-93
2022/09/29 05:06:18;;;;;;;9.70;4.63;;;;;;;;;;4913533;29;20091;-91
2022/09/29 05:08:44;;;;;;;13.38;3.47;;;;;;;;;;4913625;29;20070;-88
2022/09/29 05:11:10;;;;;;;12.55;3.20;;;;;;;;;;4914483;29;20040;-89
2022/09/29 05:13:37;;;;;;;16.38;3.53;;;;;;;;;;4913159;29;20028;-86
2022/09/29 05:16:03;;;;;;;9.40;3.20;;;;;;;;;;4927976;29;20031;-92
2022/09/29 05:18:30;;;;;;;14.82;3.63;;;;;;;;;;4925472;29;20107;-91
2022/09/29 05:20:56;;;;;;;11.07;3.22;;;;;;;;;;4929764;29;20028;-87
2022/09/29 05:23:22;;;;;;;8.63;3.10;;;;;;;;;;4922661;29;20036;-88
2022/09/29 05:25:48;;;;;;;17.60;4.20;;;;;;;;;;4929479;29;20031;-86
2022/09/29 05:28:14;;;;;;;10.05;3.30;;;;;;;;;;4927296;29;20404;-88
2022/09/29 05:30:42;;;;;;;11.40;3.78;;;;;;;;;;4925848;29;20020;-88
2022/09/29 05:33:08;;;;;;;12.55;3.53;;;;;;;;;;4925855;29;20039;-89
2022/09/29 05:35:34;;;;;;;11.23;3.78;;;;;;;;;;4931167;29;20058;-89
2022/09/29 05:38:00;;;;;;;12.20;4.03;;;;;;;;;;4933701;29;20036;-89
2022/09/29 05:40:26;;;;;;;17.33;4.88;;;;;;;;;;4932510;29;20484;-84
2022/09/29 05:42:52;;;;;;;16.35;3.72;;;;;;;;;;4934601;29;20036;-87
2022/09/29 05:45:18;;;;;;;6.93;3.33;;;;;;;;;;4933185;29;20551;-88
2022/09/29 05:47:45;;;;;;;12.18;4.05;;;;;;;;;;4924358;29;20036;-87
2022/09/29 05:50:11;;;;;;;11.98;4.28;;;;;;;;;;4916583;29;20047;-88
2022/09/29 05:52:38;;;;;;;11.73;3.97;;;;;;;;;;4932233;29;20038;-84
2022/09/29 05:55:04;;;;;;;16.33;4.18;;;;;;;;;;4932348;29;20131;-86
2022/09/29 05:57:30;;;;;;;13.82;4.20;;;;;;;;;;4933923;29;20063;-83
2022/09/29 05:59:57;;;;;;;17.50;4.43;;;;;;;;;;4934593;29;20020;-84
2022/09/29 06:02:23;;;;;;;16.27;4.75;;;;;;;;;;4933272;29;20519;-84
2022/09/29 06:04:49;;;;;;;26.13;4.63;;;;;;;;;;4933622;29;20031;-88
2022/09/29 06:07:15;;;;;;;11.70;3.88;;;;;;;;;;4933567;29;20079;-85
2022/09/29 06:09:41;;;;;;;12.55;3.85;;;;;;;;;;4933550;29;20028;-86
2022/09/29 06:12:07;;;;;;;19.58;4.00;;;;;;;;;;4932490;29;20059;-84
2022/09/29 06:14:33;;;;;;;15.82;3.85;;;;;;;;;;4933710;29;20039;-88
2022/09/29 06:16:59;;;;;;;8.13;3.75;;;;;;;;;;4933687;29;20480;-83
2022/09/29 06:19:25;;;;;;;8.60;3.63;;;;;;;;;;4934255;29;20036;-85
2022/09/29 06:21:51;;;;;;;10.63;3.45;;;;;;;;;;4932188;29;20130;-86
2022/09/29 06:24:17;;;;;;;14.75;3.90;;;;;;;;;;4933314;29;20469;-85
2022/09/29 06:26:43;;;;;;;12.02;3.28;;;;;;;;;;4933418;29;20104;-88
2022/09/29 06:29:09;;;;;;;13.02;3.33;;;;;;;;;;4933486;29;20145;-87
2022/09/29 06:31:36;;;;;;;15.07;4.13;;;;;;;;;;4933666;29;20063;-86
2022/09/29 06:34:03;;;;;;;10.48;3.42;;;;;;;;;;4896692;29;1122638;-86
2022/09/29 06:39:25;;;;;;;11.00;3.65;;;;;;;;;;4935173;29;20123;-85
2022/09/29 06:41:53;;;;;;;16.80;3.53;;;;;;;;;;4934138;29;20074;-88
2022/09/29 06:44:19;;;;;;;17.92;3.97;;;;;;;;;;4934271;29;20252;-84
2022/09/29 06:46:46;;;;;;;25.55;4.95;;;;;;;;;;4933764;29;20020;-86
2022/09/29 06:49:14;;;;;;;13.02;3.30;;;;;;;;;;4934060;29;20027;-86
2022/09/29 06:51:40;;;;;;;12.13;3.53;;;;;;;;;;4932746;29;20123;-87
2022/09/29 06:54:06;;;;;;;16.13;3.50;;;;;;;;;;4934119;29;20103;-87
2022/09/29 06:56:32;;;;;;;17.90;3.90;;;;;;;;;;4933884;29;20024;-85
2022/09/29 06:58:58;;;;;;;8.45;3.50;;;;;;;;;;4934808;29;20038;-87
2022/09/29 07:01:25;;;;;;;10.63;3.10;;;;;;;;;;4933818;29;20048;-86
2022/09/29 07:03:51;;;;;;;9.25;3.33;;;;;;;;;;4933964;29;20023;-85
2022/09/29 07:06:17;;;;;;;14.85;3.80;;;;;;;;;;4933835;29;20038;-88
2022/09/29 07:08:43;;;;;;;11.88;3.30;;;;;;;;;;4932553;29;20020;-90
2022/09/29 07:11:09;;;;;;;17.63;3.40;;;;;;;;;;4933801;29;20031;-85
2022/09/29 07:13:36;;;;;;;14.88;3.40;;;;;;;;;;4933988;29;20087;-84
2022/09/29 07:16:10;;;;;;;11.55;3.35;;;;;;;;;;4932560;29;20031;-84
2022/09/29 07:18:37;;;;;;;15.65;3.75;;;;;;;;;;4933596;29;20087;-85
2022/09/29 07:21:16;;;;;;;11.95;4.10;;;;;;;;;;4933453;29;20503;-86
2022/09/29 07:23:43;;;;;;;12.63;3.92;;;;;;;;;;4933522;29;20023;-86
2022/09/29 07:26:09;;;;;;;9.40;3.55;;;;;;;;;;4933427;29;20032;-85
2022/09/29 07:28:35;;;;;;;22.30;4.03;;;;;;;;;;4933346;29;20024;-85
2022/09/29 07:31:02;;;;;;;10.85;4.13;;;;;;;;;;4932893;29;20448;-86
2022/09/29 07:33:28;;;;;;;14.18;3.80;;;;;;;;;;4933934;29;20373;-85
2022/09/29 07:35:54;;;;;;;16.98;3.97;;;;;;;;;;4932049;29;20031;-88
2022/09/29 07:38:21;;;;;;;14.40;3.92;;;;;;;;;;4933208;29;20034;-89
2022/09/29 07:40:47;;;;;;;17.85;6.45;;;;;;;;;;4933215;29;20384;-85
2022/09/29 07:43:13;;;;;;;17.27;6.13;;;;;;;;;;4933142;29;20499;-87
2022/09/29 07:45:44;;;;;;;9.23;4.05;;;;;;;;;;4933120;29;20020;-87
2022/09/29 07:48:10;;;;;;;11.27;4.13;;;;;;;;;;4933167;29;20035;-87
2022/09/29 07:50:36;;;;;;;7.88;3.80;;;;;;;;;;4933072;29;20031;-87
2022/09/29 07:53:02;;;;;;;11.05;3.40;;;;;;;;;;4933899;29;20078;-87
2022/09/29 07:55:28;;;;;;;15.23;3.60;;;;;;;;;;4933807;29;20030;-90
2022/09/29 07:57:55;;;;;;;10.18;3.30;;;;;;;;;;4932260;29;20106;-90
2022/09/29 08:00:21;;;;;;;10.73;3.22;;;;;;;;;;4932816;29;20078;-88
2022/09/29 08:02:50;;;;;;;6.75;3.30;;;;;;;;;;4933104;29;20038;-90
2022/09/29 08:05:17;;;;;;;11.80;3.72;;;;;;;;;;4931866;29;20484;-87
2022/09/29 08:07:43;;;;;;;9.75;3.45;;;;;;;;;;4932917;29;20016;-90
2022/09/29 08:10:09;;;;;;;11.18;3.40;;;;;;;;;;4932990;29;20028;-90
2022/09/29 08:12:35;;;;;;;16.40;3.20;;;;;;;;;;4931537;29;20026;-88
2022/09/29 08:15:01;;;;;;;10.57;3.05;;;;;;;;;;4933633;29;20458;-88
2022/09/29 08:17:27;;;;;;;13.27;3.40;;;;;;;;;;4931621;29;20024;-88
2022/09/29 08:19:53;;;;;;;11.88;2.97;;;;;;;;;;4932573;29;20028;-89
2022/09/29 08:22:19;;;;;;;11.07;2.80;;;;;;;;;;4932674;29;20036;-88
2022/09/29 08:24:45;;;;;;;9.65;3.17;;;;;;;;;;4932619;29;20031;-86
2022/09/29 08:27:11;;;;;;;8.90;2.90;;;;;;;;;;4931205;29;20630;-90
2022/09/29 08:29:37;;;;;;;12.52;3.40;;;;;;;;;;4932588;29;20024;-89
2022/09/29 08:32:03;;;;;;;10.85;3.00;;;;;;;;;;4933329;29;20059;-87
2022/09/29 08:34:29;;;;;;;8.95;3.13;;;;;;;;;;4932612;29;20072;-88
2022/09/29 08:36:55;;;;;;;9.98;2.75;;;;;;;;;;4932652;29;20669;-90
2022/09/29 08:39:21;;;;;;;12.15;3.10;;;;;;;;;;4932595;29;20035;-87
2022/09/29 08:41:53;;;;;;;11.05;3.00;;;;;;;;;;4932185;29;20040;-89
2022/09/29 08:44:22;;;;;;;12.60;3.20;;;;;;;;;;4932622;29;20031;-87
2022/09/29 08:46:51;;;;;;;7.43;2.38;;;;;;;;;;4932450;29;20059;-90
2022/09/29 08:49:37;;;;;;;8.02;2.25;;;;;;;;;;4932328;29;20066;-87
2022/09/29 08:52:06;;;;;;;17.52;4.30;;;;;;;;;;4933298;29;20102;-89
2022/09/29 08:54:37;;;;;;;10.80;2.55;;;;;;;;;;4932904;29;20039;-89
2022/09/29 08:57:04;;;;;;;7.18;2.08;;;;;;;;;;4933077;29;20499;-88
2022/09/29 08:59:30;;;;;;;9.93;2.50;;;;;;;;;;4932292;29;20036;-87
2022/09/29 09:01:56;;;;;;;3.70;2.00;;;;;;;;;;4932229;29;20419;-87
2022/09/29 09:04:31;;;;;;;12.00;2.00;;;;;;;;;;4932869;29;20032;-88
2022/09/29 09:07:16;;;;;;;11.30;2.30;;;;;;;;;;4937432;29;20046;-89
2022/09/29 09:09:50;;;;;;;7.50;2.25;;;;;;;;;;4939051;29;20445;-87
2022/09/29 09:12:22;;;;;;;13.68;2.55;;;;;;;;;;4944419;29;20023;-87
2022/09/29 09:14:48;;;;;;;10.35;2.22;;;;;;;;;;4936099;29;20449;-87
2022/09/29 09:17:29;;;;;;;12.48;3.28;;;;;;;;;;4934454;29;20115;-85
2022/09/29 09:19:55;;;;;;;5.55;1.88;;;;;;;;;;4935802;29;20519;-88
2022/09/29 09:22:24;;;;;;;9.77;2.28;;;;;;;;;;4935755;29;20040;-87
2022/09/29 09:24:56;;;;;;;4.95;2.42;;;;;;;;;;4934766;29;20028;-86
2022/09/29 09:27:27;;;;;;;8.88;2.35;;;;;;;;;;4934599;29;20031;-87
2022/09/29 09:30:00;;;;;;;7.93;1.88;;;;;;;;;;4935816;29;20032;-89
2022/09/29 09:32:28;;;;;;;9.20;2.10;;;;;;;;;;4935794;29;20103;-89
2022/09/29 09:34:57;;;;;;;2.47;1.70;;;;;;;;;;4935467;29;20031;-88
2022/09/29 09:37:30;;;;;;;7.28;2.63;;;;;;;;;;4935608;29;20102;-88
2022/09/29 09:40:04;;;;;;;8.70;1.95;;;;;;;;;;4934418;29;20038;-87
2022/09/29 09:42:36;;;;;;;6.60;1.85;;;;;;;;;;4935421;29;20040;-89
2022/09/29 09:45:09;;;;;;;7.43;1.70;;;;;;;;;;4935489;29;20388;-88
2022/09/29 09:47:41;;;;;;;9.10;1.83;;;;;;;;;;4936522;29;20090;-86
2022/09/29 09:50:18;;;;;;;11.10;1.90;;;;;;;;;;4934875;29;20510;-85
2022/09/29 09:52:46;;;;;;;11.38;1.70;;;;;;;;;;4935283;29;20050;-87
2022/09/29 09:55:16;;;;;;;7.93;1.60;;;;;;;;;;4935166;29;20023;-87
2022/09/29 09:57:43;;;;;;;6.80;1.90;;;;;;;;;;4934073;29;20074;-89
2022/09/29 10:00:11;;;;;;;5.43;1.55;;;;;;;;;;4936209;29;20020;-87
2022/09/29 10:02:43;;;;;;;11.48;2.58;;;;;;;;;;4936137;29;20035;-86
2022/09/29 10:05:16;;;;;;;7.88;1.30;;;;;;;;;;4935962;29;20513;-90
2022/09/29 10:07:43;;;;;;;7.88;1.83;;;;;;;;;;4935381;29;20070;-88
2022/09/29 10:10:16;;;;;;;3.55;1.30;;;;;;;;;;4935854;29;20039;-90
2022/09/29 10:12:44;;;;;;;3.78;1.10;;;;;;;;;;4933923;29;20060;-86
2022/09/29 10:15:29;;;;;;;4.07;1.30;;;;;;;;;;4935829;29;20051;-86
2022/09/29 10:18:02;;;;;;;3.67;1.10;;;;;;;;;;4935119;29;20027;-87
2022/09/29 10:20:38;;;;;;;2.83;1.10;;;;;;;;;;4934751;29;20075;-88
2022/09/29 10:23:33;;;;;;;2.58;1.00;;;;;;;;;;4934717;29;20043;-87
2022/09/29 10:26:07;;;;;;;4.43;1.05;;;;;;;;;;4926611;29;20071;-89
2022/09/29 10:28:39;;;;;;;6.57;1.17;;;;;;;;;;4933719;29;20028;-89
2022/09/29 10:31:16;;;;;;;8.60;1.30;;;;;;;;;;4934827;29;20480;-85
2022/09/29 10:33:46;;;;;;;6.32;1.90;;;;;;;;;;4933350;29;20188;-84
2022/09/29 10:36:12;;;;;;;5.13;1.13;;;;;;;;;;4933882;29;20035;-84
2022/09/29 10:38:39;;;;;;;4.88;0.90;;;;;;;;;;4935693;29;20051;-89
2022/09/29 10:41:06;;;;;;;5.57;1.23;;;;;;;;;;4934914;29;20032;-91
2022/09/29 10:43:39;;;;;;;2.70;1.10;;;;;;;;;;4933419;29;20098;-85
2022/09/29 10:46:25;;;;;;;2.65;1.20;;;;;;;;;;4933364;29;20031;-89
2022/09/29 10:49:10;;;;;;;2.08;1.02;;;;;;;;;;4934416;29;20028;-86
2022/09/29 10:51:36;;;;;;;2.15;1.00;;;;;;;;;;4934455;29;20031;-90
2022/09/29 10:54:09;;;;;;;2.28;0.90;;;;;;;;;;4934231;29;20280;-89
2022/09/29 10:56:35;;;;;;;10.35;1.35;;;;;;;;;;4934363;29;20028;-86
2022/09/29 10:59:02;;;;;;;5.35;1.55;;;;;;;;;;4934330;29;20023;-90
2022/09/29 11:01:30;;;;;;;4.00;1.20;;;;;;;;;;4934169;29;20040;-89
2022/09/29 11:04:02;;;;;;;;;;;;;;;;;;4934574;29;20023;-86
2022/09/29 11:06:30;;;;;;;3.95;1.17;;;;;;;;;;4934026;29;19918;-87
2022/09/29 11:08:57;;;;;;;5.53;1.30;;;;;;;;;;4934132;29;20036;-87
2022/09/29 11:11:30;;;;;;;7.22;2.80;;;;;;;;;;4933940;29;20759;-87
2022/09/29 11:13:57;;;;;;;4.03;1.40;;;;;;;;;;4933943;29;20031;-88
2022/09/29 11:16:28;;;;;;;3.25;1.25;;;;;;;;;;4932725;29;20028;-89
2022/09/29 11:18:57;;;;;;;6.32;1.30;;;;;;;;;;4933898;29;20496;-88
2022/09/29 11:21:32;;;;;;;12.15;3.60;;;;;;;;;;4934048;29;20036;-89
2022/09/29 11:24:16;;;;;;;2.53;1.27;;;;;;;;;;4933771;29;20024;-88
2022/09/29 11:26:46;;;;;;;6.88;1.20;;;;;;;;;;4934384;29;20102;-88
2022/09/29 11:29:20;;;;;;;5.55;1.83;;;;;;;;;;4934688;29;20024;-90
2022/09/29 11:31:55;;;;;;;4.93;1.55;;;;;;;;;;4933785;29;20041;-88
2022/09/29 11:34:33;;;;;;;5.00;1.60;;;;;;;;;;4931265;29;20060;-89
2022/09/29 11:36:59;;;;;;;;;;;;;;;;;;4933928;29;20066;-87
2022/09/29 11:39:28;;;;;;;4.80;1.65;;;;;;;;;;4933636;29;19906;-88
2022/09/29 11:41:59;;;;;;;3.67;1.60;;;;;;;;;;4936785;29;20040;-88
2022/09/29 11:44:45;;;;;;;10.82;5.30;;;;;;;;;;4938253;29;20052;-86
2022/09/29 11:47:23;;;;;;;9.50;4.82;;;;;;;;;;4941781;29;20035;-88
2022/09/29 11:50:02;;;;;;;7.07;2.47;;;;;;;;;;4932040;29;20055;-88
2022/09/29 11:52:47;;;;;;;5.55;2.17;;;;;;;;;;4933424;29;20080;-88
2022/09/29 11:55:16;;;;;;;7.28;2.42;;;;;;;;;;4932710;29;20034;-87
2022/09/29 11:57:42;;;;;;;8.88;4.75;;;;;;;;;;4934548;29;20031;-87
2022/09/29 12:00:09;;;;;;;2.88;1.40;;;;;;;;;;4932991;29;20034;-91
2022/09/29 12:02:41;;;;;;;5.85;1.55;;;;;;;;;;4932979;29;20040;-89
2022/09/29 12:05:07;;;;;;;7.25;3.03;;;;;;;;;;4933066;29;20036;-89
2022/09/29 12:07:53;;;;;;;4.10;1.38;;;;;;;;;;4933034;29;20082;-90
2022/09/29 12:10:20;;;;;;;3.42;1.83;;;;;;;;;;4931616;29;20028;-89
2022/09/29 12:12:46;;;;;;;8.75;2.95;;;;;;;;;;4933767;29;20503;-87
2022/09/29 12:15:15;;;;;;;4.90;2.83;;;;;;;;;;4932616;29;20547;-90
2022/09/29 12:17:44;;;;;;;10.13;3.90;;;;;;;;;;4933068;29;20082;-90
2022/09/29 12:20:09;;;;;;;;;;;;;;;;;;4933163;29;20503;-88
2022/09/29 12:22:36;;;;;;;4.00;1.80;;;;;;;;;;4931498;29;19915;-88
2022/09/29 12:25:02;;;;;;;8.50;4.10;;;;;;;;;;4932936;29;20075;-91
2022/09/29 12:27:39;;;;;;;2.80;1.73;;;;;;;;;;4932666;29;20019;-87
2022/09/29 12:30:14;;;;;;;3.55;1.45;;;;;;;;;;4932648;29;20504;-88
2022/09/29 12:32:53;;;;;;;10.25;3.47;;;;;;;;;;4931286;29;20040;-85
2022/09/29 12:35:34;;;;;;;9.15;4.70;;;;;;;;;;4932996;29;20039;-87
2022/09/29 12:38:00;;;;;;;4.07;1.75;;;;;;;;;;4931043;29;20123;-87
2022/09/29 12:40:31;;;;;;;6.18;1.92;;;;;;;;;;4932445;29;20504;-87
2022/09/29 12:43:03;;;;;;;7.75;3.40;;;;;;;;;;4932617;29;20035;-88
2022/09/29 12:45:32;;;;;;;3.38;1.40;;;;;;;;;;4931924;29;20027;-86
2022/09/29 12:48:17;;;;;;;10.23;5.75;;;;;;;;;;4931251;29;20388;-90
2022/09/29 12:50:53;;;;;;;37.78;20.60;;;;;;;;;;4932264;29;20098;-88
2022/09/29 12:53:28;;;;;;;5.18;2.30;;;;;;;;;;4932780;29;20035;-84
2022/09/29 12:55:57;;;;;;;12.73;6.22;;;;;;;;;;4931063;29;20118;-87
2022/09/29 12:58:37;;;;;;;6.00;1.00;;;;;;;;;;4932349;29;20050;-87
2022/09/29 13:01:15;;;;;;;25.52;7.78;;;;;;;;;;4932356;29;20115;-88
2022/09/29 13:03:55;;;;;;;22.20;7.32;;;;;;;;;;4931124;29;20511;-88
2022/09/29 13:06:29;;;;;;;63.03;23.02;;;;;;;;;;4932162;29;20030;-85
2022/09/29 13:09:05;;;;;;;14.55;2.80;;;;;;;;;;4932261;29;20028;-84
2022/09/29 13:11:50;;;;;;;14.98;5.75;;;;;;;;;;4932121;29;20448;-89
2022/09/29 13:14:31;;;;;;;3.25;2.00;;;;;;;;;;4932882;29;20107;-89
2022/09/29 13:17:16;;;;;;;5.82;2.17;;;;;;;;;;4932397;29;20106;-87
2022/09/29 13:20:01;;;;;;;8.50;2.35;;;;;;;;;;4932155;29;20103;-88
2022/09/29 13:22:28;;;;;;;13.05;5.30;;;;;;;;;;4930701;29;20492;-86
2022/09/29 13:24:54;;;;;;;6.13;2.30;;;;;;;;;;4932051;29;20027;-89
2022/09/29 13:27:30;;;;;;;9.07;4.15;;;;;;;;;;4932913;29;20104;-88
2022/09/29 13:30:05;;;;;;;6.88;4.05;;;;;;;;;;4914846;29;20032;-87
2022/09/29 13:32:33;;;;;;;4.88;2.20;;;;;;;;;;4931839;29;20020;-85
2022/09/29 13:35:01;;;;;;;2.55;1.50;;;;;;;;;;4930137;29;20130;-88
2022/09/29 13:37:27;;;;;;;;;;;;;;;;;;4932234;29;20023;-85
2022/09/29 13:40:08;;;;;;;4.93;1.45;;;;;;;;;;4930501;29;19942;-88
2022/09/29 13:42:39;;;;;;;5.43;2.85;;;;;;;;;;4930528;29;20103;-85
2022/09/29 13:45:24;;;;;;;7.55;2.40;;;;;;;;;;4931939;29;20031;-87
2022/09/29 13:47:54;;;;;;;7.60;1.50;;;;;;;;;;4932569;29;20038;-87
2022/09/29 13:50:39;;;;;;;3.97;1.60;;;;;;;;;;4931319;29;20028;-89
2022/09/29 13:53:32;;;;;;;4.05;1.60;;;;;;;;;;4930544;29;20035;-88
2022/09/29 13:56:02;;;;;;;3.15;1.30;;;;;;;;;;4931895;29;20099;-89
2022/09/29 13:58:29;;;;;;;8.15;2.00;;;;;;;;;;4933856;29;20028;-87
2022/09/29 14:00:58;;;;;;;4.38;1.98;;;;;;;;;;4933854;29;20040;-85
2022/09/29 14:03:31;;;;;;;8.82;1.85;;;;;;;;;;4933889;29;20063;-86
2022/09/29 14:06:07;;;;;;;4.38;1.95;;;;;;;;;;4935251;29;20034;-87
2022/09/29 14:08:39;;;;;;;4.10;1.60;;;;;;;;;;4933845;29;20575;-89
2022/09/29 14:11:11;;;;;;;9.23;1.90;;;;;;;;;;4935166;29;20023;-88
2022/09/29 14:13:46;;;;;;;6.28;2.45;;;;;;;;;;4935362;29;20027;-89
2022/09/29 14:16:15;;;;;;;9.57;2.80;;;;;;;;;;4936947;29;20031;-85
2022/09/29 14:18:44;;;;;;;5.72;2.50;;;;;;;;;;4941351;29;20035;-88
2022/09/29 14:21:11;;;;;;;3.85;2.35;;;;;;;;;;4943960;29;20060;-86
2022/09/29 14:23:51;;;;;;;4.47;2.60;;;;;;;;;;4938074;29;20036;-87
2022/09/29 14:26:36;;;;;;;8.18;3.10;;;;;;;;;;4935377;29;20015;-85
2022/09/29 14:29:03;;;;;;;13.80;3.10;;;;;;;;;;4934947;29;20038;-88
2022/09/29 14:31:30;;;;;;;4.43;2.20;;;;;;;;;;4933896;29;20047;-87
2022/09/29 14:33:56;;;;;;;5.57;2.50;;;;;;;;;;4934622;29;20062;-85
2022/09/29 14:36:24;;;;;;;5.40;2.70;;;;;;;;;;4934240;29;20063;-88
2022/09/29 14:38:53;;;;;;;6.78;2.78;;;;;;;;;;4935675;29;20067;-91
2022/09/29 14:41:23;;;;;;;7.10;2.40;;;;;;;;;;4934862;29;20034;-84
2022/09/29 14:43:50;;;;;;;5.95;2.70;;;;;;;;;;4934573;29;20106;-90
2022/09/29 14:52:01;;;;;;;5.68;2.58;;;;;;;;;;4934440;29;20126;-89
2022/09/29 14:54:42;;;;;;;5.32;2.05;;;;;;;;;;4934525;29;20055;-87
2022/09/29 14:57:09;;;;;;;3.85;1.83;;;;;;;;;;4934288;29;20094;-89
2022/09/29 14:59:35;;;;;;;3.03;1.63;;;;;;;;;;4933210;29;20032;-88
2022/09/29 15:02:20;;;;;;;5.60;1.42;;;;;;;;;;4934215;29;20051;-84